Terminal Aerodrome Forecast
Issued by NWS Atlanta, GA

Home | Current Version | Previous Version | Text Only | Print | Product List | Glossary On
Versions: 1 2 3 4 5 6 7 8 9 10 11 12 13 14 15 16 17 18 19 20 21 22 23 24 25 26 27
556
FTUS42 KFFC 191739
TAFMCN
TAF
KMCN 191739Z 1918/2018 09005KT P6SM FEW030 SCT100
     FM192100 17005KT P6SM BKN050 BKN100
     FM200300 15003KT 4SM BR OVC015
     FM200600 20007KT 2SM -RA BR OVC004
     FM201100 21007KT 2SM BR BKN007=

USA.gov is the U.S. government's official web portal to all federal, state and local government web resources and services.